Time;durP1;ratioP1;P1;durP2;ratioP2;P2;SDS_P1;SDS_P2;PMS_P1;PMS_P2;Temp;Humidity;BMP_temperature;BMP_pressure;BME280_temperature;BME280_humidity;BME280_pressure;Samples;Min_cycle;Max_cycle;Signal;HPM_P1;HPM_P2
2023/08/06 00:01:25;;;;;;;4.97;3.87;;;;;;;13.96;100.00;100255.13;4971052;28;20028;-96
2023/08/06 00:03:51;;;;;;;4.43;4.03;;;;;;;13.89;100.00;100250.09;4966834;28;20101;-96
2023/08/06 00:06:16;;;;;;;3.83;3.43;;;;;;;13.79;100.00;100234.09;4971298;28;20035;-95
2023/08/06 00:08:42;;;;;;;7.47;4.00;;;;;;;13.75;100.00;100227.72;4973962;28;20025;-96
2023/08/06 00:11:08;;;;;;;4.97;3.95;;;;;;;13.98;100.00;100265.59;4974715;28;20029;-94
2023/08/06 00:13:33;;;;;;;4.47;3.67;;;;;;;13.74;100.00;100216.13;4972132;28;20069;-96
2023/08/06 00:16:12;;;;;;;5.03;3.92;;;;;;;13.91;100.00;100241.72;4970139;28;20035;-95
2023/08/06 00:18:38;;;;;;;4.63;3.60;;;;;;;13.71;100.00;100213.25;4962106;28;20023;-95
2023/08/06 00:21:04;;;;;;;4.70;4.03;;;;;;;13.89;100.00;100242.03;4963593;28;20290;-95
2023/08/06 00:23:29;;;;;;;5.03;3.40;;;;;;;13.71;100.00;100208.66;4956056;28;20035;-96
2023/08/06 00:25:55;;;;;;;8.87;3.70;;;;;;;13.80;100.00;100224.94;4961404;28;20107;-96
2023/08/06 00:28:20;;;;;;;7.05;3.90;;;;;;;13.85;100.00;100230.25;4974277;28;20450;-96
2023/08/06 00:30:46;;;;;;;6.10;3.70;;;;;;;13.87;100.00;100232.66;4973341;28;20019;-96
2023/08/06 00:33:11;;;;;;;8.30;3.80;;;;;;;13.78;100.00;100213.69;4974115;28;20035;-95
2023/08/06 00:35:37;;;;;;;7.03;3.72;;;;;;;13.91;100.00;100231.75;4988848;28;20030;-95
2023/08/06 00:38:02;;;;;;;4.33;3.50;;;;;;;13.90;100.00;100232.84;4974310;28;20483;-95
2023/08/06 00:40:31;;;;;;;4.53;3.43;;;;;;;13.72;100.00;100202.16;4974855;28;20037;-96
2023/08/06 00:42:56;;;;;;;4.10;3.70;;;;;;;13.83;100.00;100215.47;4972614;28;20337;-95
2023/08/06 00:45:22;;;;;;;4.22;3.38;;;;;;;13.88;100.00;100228.84;4974449;28;20030;-96
2023/08/06 00:47:48;;;;;;;4.97;3.33;;;;;;;13.97;100.00;100239.78;4972342;28;20027;-96
2023/08/06 00:50:14;;;;;;;3.90;3.20;;;;;;;13.86;100.00;100231.06;4974290;28;20289;-94
2023/08/06 00:52:40;;;;;;;4.95;3.53;;;;;;;13.70;100.00;100204.34;4971695;28;20026;-95
2023/08/06 00:55:06;;;;;;;3.87;3.00;;;;;;;13.85;100.00;100224.06;4973211;28;20026;-96
2023/08/06 00:57:32;;;;;;;5.57;3.40;;;;;;;13.72;100.00;100206.75;4974136;28;20034;-95
2023/08/06 00:59:57;;;;;;;4.78;3.13;;;;;;;13.83;100.00;100224.34;4974239;28;20027;-95
2023/08/06 01:02:23;;;;;;;6.63;3.13;;;;;;;13.70;100.00;100207.03;4974045;28;20115;-95
2023/08/06 01:04:48;;;;;;;4.90;3.20;;;;;;;13.69;100.00;100205.47;4970342;28;20027;-96
2023/08/06 01:07:45;;;;;;;5.30;3.37;;;;;;;13.90;100.00;100235.56;4970360;28;20026;-95
2023/08/06 01:10:28;;;;;;;6.22;3.38;;;;;;;13.92;100.00;100237.94;4969059;28;20042;-95
2023/08/06 01:13:15;;;;;;;5.07;3.60;;;;;;;13.91;100.00;100231.75;4971028;28;20049;-94
2023/08/06 01:15:52;;;;;;;6.97;3.23;;;;;;;13.77;100.00;100215.56;4956313;28;20905;-94
2023/08/06 01:18:17;;;;;;;5.40;3.20;;;;;;;13.87;100.00;100236.13;4971654;28;20362;-94
2023/08/06 01:20:43;;;;;;;7.50;3.60;;;;;;;13.82;100.00;100222.75;4958926;28;20030;-90
2023/08/06 01:23:08;;;;;;;3.90;3.50;;;;;;;13.75;100.00;100227.72;4959093;28;20511;-92
2023/08/06 01:25:58;;;;;;;4.50;3.20;;;;;;;13.73;100.00;100211.84;4957302;28;20434;-93
2023/08/06 01:28:44;;;;;;;6.22;3.40;;;;;;;13.74;100.00;100226.91;4964354;28;20035;-94
2023/08/06 01:31:18;;;;;;;5.45;3.10;;;;;;;13.61;100.00;100219.59;4971214;28;20014;-93
2023/08/06 01:33:47;;;;;;;6.75;3.22;;;;;;;13.63;100.00;100230.88;4967000;28;20031;-93
2023/08/06 01:36:13;;;;;;;6.97;3.30;;;;;;;13.62;100.00;100232.75;4967326;28;20089;-93
2023/08/06 01:38:38;;;;;;;8.10;3.53;;;;;;;13.53;100.00;100225.63;4976000;28;20022;-93
2023/08/06 01:41:04;;;;;;;6.07;3.17;;;;;;;13.52;100.00;100229.41;4989838;28;20039;-92
2023/08/06 01:43:29;;;;;;;3.60;2.83;;;;;;;13.54;100.00;100227.22;4974335;28;20022;-92
2023/08/06 01:45:54;;;;;;;6.97;3.17;;;;;;;13.48;100.00;100221.13;4984893;28;20015;-92
2023/08/06 01:48:20;;;;;;;6.53;3.40;;;;;;;13.54;100.00;100227.22;4984530;28;20490;-91
2023/08/06 01:50:45;;;;;;;5.60;3.27;;;;;;;13.52;100.00;100224.00;4971700;28;20106;-91
2023/08/06 01:53:10;;;;;;;6.25;3.67;;;;;;;13.48;100.00;100219.25;4972463;28;20715;-92
2023/08/06 01:55:36;;;;;;;5.73;3.03;;;;;;;13.44;100.00;100215.53;4971953;28;20027;-91
2023/08/06 01:58:01;;;;;;;5.40;3.47;;;;;;;13.53;100.00;100231.81;4971930;28;20093;-92
2023/08/06 02:00:28;;;;;;;6.10;3.47;;;;;;;13.53;100.00;100231.81;4971076;28;20163;-92
2023/08/06 02:02:54;;;;;;;7.13;3.83;;;;;;;13.54;100.00;100233.41;4971130;28;20498;-91
2023/08/06 02:05:19;;;;;;;6.87;3.00;;;;;;;13.52;100.00;100234.78;4971537;28;20035;-92
2023/08/06 02:07:44;;;;;;;7.97;3.30;;;;;;;13.51;100.00;100233.22;4971718;28;20027;-92
2023/08/06 02:10:10;;;;;;;4.77;3.40;;;;;;;13.50;100.00;100218.16;4969098;28;20039;-92
2023/08/06 02:12:35;;;;;;;4.10;3.28;;;;;;;13.50;100.00;100221.63;4972102;28;20483;-92
2023/08/06 02:15:00;;;;;;;7.13;3.20;;;;;;;13.52;100.00;100226.72;4971460;28;20027;-92
2023/08/06 02:17:25;;;;;;;6.13;3.07;;;;;;;13.54;100.00;100224.53;4970290;28;20471;-91
2023/08/06 02:19:51;;;;;;;7.10;3.57;;;;;;;13.57;100.00;100226.63;4971129;28;20082;-92
2023/08/06 02:22:16;;;;;;;4.80;3.00;;;;;;;13.61;100.00;100231.13;4972013;28;20496;-91
2023/08/06 02:24:41;;;;;;;4.72;3.20;;;;;;;13.66;100.00;100232.16;4971512;28;20054;-92
2023/08/06 02:27:07;;;;;;;7.13;3.33;;;;;;;13.59;100.00;100216.38;4971071;28;20054;-91
2023/08/06 02:29:32;;;;;;;4.97;3.20;;;;;;;13.69;100.00;100232.41;4971933;28;20082;-92
2023/08/06 02:31:58;;;;;;;7.23;3.43;;;;;;;13.71;100.00;100234.78;4971380;28;20478;-92
2023/08/06 02:34:23;;;;;;;6.43;3.13;;;;;;;13.68;100.00;100230.78;4971212;28;20033;-92
2023/08/06 02:36:48;;;;;;;7.10;3.28;;;;;;;13.70;100.00;100228.59;4970271;28;20486;-91
2023/08/06 02:39:14;;;;;;;6.97;2.93;;;;;;;13.63;100.00;100220.09;4970109;28;20068;-91
2023/08/06 02:41:39;;;;;;;8.93;3.07;;;;;;;13.66;100.00;100213.31;4975760;28;20074;-91
2023/08/06 02:44:04;;;;;;;7.33;2.93;;;;;;;13.74;100.00;100229.59;4975732;28;20448;-92
2023/08/06 02:46:30;;;;;;;5.43;2.73;;;;;;;13.70;100.00;100217.81;4975675;28;20379;-92
2023/08/06 02:48:55;;;;;;;5.50;2.70;;;;;;;13.75;100.00;100217.75;4974714;28;20035;-93
2023/08/06 02:51:20;;;;;;;4.93;3.00;;;;;;;13.66;100.00;100203.38;4976980;28;20027;-91
2023/08/06 02:53:48;;;;;;;5.07;2.83;;;;;;;13.82;100.00;100224.66;4981259;28;20447;-91
2023/08/06 02:56:13;;;;;;;6.25;3.08;;;;;;;13.81;100.00;100221.13;4982188;28;20035;-92
2023/08/06 02:58:38;;;;;;;5.03;2.53;;;;;;;13.75;100.00;100212.34;4984313;28;20066;-91
2023/08/06 03:01:05;;;;;;;3.97;2.73;;;;;;;13.74;100.00;100207.28;4999990;28;20038;-91
2023/08/06 03:03:31;;;;;;;7.30;2.95;;;;;;;13.76;100.00;100207.78;4982809;28;20450;-91
2023/08/06 03:05:57;;;;;;;6.13;2.90;;;;;;;13.78;100.00;100216.38;4985361;28;20027;-91
2023/08/06 03:08:22;;;;;;;5.83;2.83;;;;;;;13.80;100.00;100218.75;4990940;28;20037;-91
2023/08/06 03:10:50;;;;;;;5.13;2.40;;;;;;;13.82;100.00;100213.88;4976081;28;20523;-92
2023/08/06 03:13:19;;;;;;;5.85;2.80;;;;;;;13.74;100.00;100204.59;4975721;28;20027;-91
2023/08/06 03:15:58;;;;;;;11.55;3.05;;;;;;;13.74;100.00;100205.38;4975221;28;20034;-92
2023/08/06 03:18:25;;;;;;;5.15;2.80;;;;;;;13.80;100.00;100219.53;4974236;28;20089;-91
2023/08/06 03:20:51;;;;;;;3.95;2.65;;;;;;;13.78;100.00;100211.78;4974775;28;20050;-92
2023/08/06 03:23:16;;;;;;;4.43;2.70;;;;;;;13.76;100.00;100213.16;4974760;28;20034;-91
2023/08/06 03:25:41;;;;;;;6.20;3.30;;;;;;;13.79;100.00;100217.94;4974285;28;20039;-91
2023/08/06 03:28:07;;;;;;;3.60;3.30;;;;;;;13.78;100.00;100217.16;4974710;28;20035;-91
2023/08/06 03:30:32;;;;;;;4.97;3.50;;;;;;;13.81;100.00;100225.75;4973497;28;20046;-91
2023/08/06 03:32:57;;;;;;;6.40;3.83;;;;;;;13.76;100.00;100215.84;4974844;28;20031;-91
2023/08/06 03:35:23;;;;;;;6.77;3.80;;;;;;;13.75;100.00;100222.34;4974670;28;20023;-92
2023/08/06 03:37:49;;;;;;;8.63;3.83;;;;;;;13.76;100.00;100216.66;4974062;28;20501;-91
2023/08/06 03:40:15;;;;;;;7.97;4.10;;;;;;;13.77;100.00;100223.63;4974227;28;20057;-91
2023/08/06 03:42:41;;;;;;;7.95;4.40;;;;;;;13.70;100.00;100215.13;4974780;28;20494;-91
2023/08/06 03:45:07;;;;;;;5.25;3.95;;;;;;;13.72;100.00;100218.31;4975251;28;20038;-92
2023/08/06 03:47:32;;;;;;;8.17;4.60;;;;;;;13.71;100.00;100214.03;4974019;28;20378;-91
2023/08/06 03:49:58;;;;;;;6.97;4.28;;;;;;;13.75;100.00;100222.34;4974080;28;20026;-92
2023/08/06 03:52:23;;;;;;;7.47;4.57;;;;;;;13.71;100.00;100215.94;4973804;28;20547;-91
2023/08/06 03:54:48;;;;;;;7.53;4.70;;;;;;;13.71;100.00;100218.63;4974465;28;20458;-91
2023/08/06 03:57:14;;;;;;;9.00;4.90;;;;;;;13.71;100.00;100219.41;4974188;28;20534;-91
2023/08/06 03:59:39;;;;;;;7.75;5.03;;;;;;;13.71;100.00;100224.78;4972826;28;20509;-92
2023/08/06 04:02:05;;;;;;;9.83;5.47;;;;;;;13.70;100.00;100219.72;4973247;28;20038;-91
2023/08/06 04:04:30;;;;;;;8.50;4.67;;;;;;;13.72;100.00;100236.38;4974718;28;20035;-91
2023/08/06 04:06:55;;;;;;;6.63;4.63;;;;;;;13.70;100.00;100225.09;4973325;28;20442;-91
2023/08/06 04:09:20;;;;;;;8.10;4.77;;;;;;;13.72;100.00;100231.78;4973861;28;20027;-91
2023/08/06 04:11:46;;;;;;;8.80;4.50;;;;;;;13.65;100.00;100220.59;4974434;28;20106;-91
2023/08/06 04:14:11;;;;;;;10.53;5.00;;;;;;;13.69;100.00;100228.88;4974430;28;20364;-91
2023/08/06 04:16:36;;;;;;;7.73;5.10;;;;;;;13.71;100.00;100235.56;4973891;28;20487;-91
2023/08/06 04:19:02;;;;;;;6.00;4.87;;;;;;;13.66;100.00;100232.97;4974682;28;20028;-91
2023/08/06 04:21:27;;;;;;;8.70;4.63;;;;;;;13.72;100.00;100244.47;4997189;28;20026;-92
2023/08/06 04:23:52;;;;;;;8.67;5.50;;;;;;;13.65;100.00;100231.38;4978033;28;20042;-91
2023/08/06 04:26:18;;;;;;;7.63;5.60;;;;;;;13.66;100.00;100230.28;5001332;28;20049;-90
2023/08/06 04:28:43;;;;;;;7.55;5.32;;;;;;;13.72;100.00;100239.06;4990979;28;20041;-91
2023/08/06 04:31:08;;;;;;;8.33;5.20;;;;;;;13.66;100.00;100230.28;4973648;28;20113;-92
2023/08/06 04:33:34;;;;;;;11.27;5.47;;;;;;;13.76;100.00;100245.47;4981941;28;20023;-91
2023/08/06 04:35:59;;;;;;;10.20;5.73;;;;;;;13.76;100.00;100242.78;4978054;28;20093;-91
2023/08/06 04:38:25;;;;;;;8.50;4.77;;;;;;;13.76;100.00;100240.09;4974642;28;20029;-91
2023/08/06 04:40:52;;;;;;;6.90;4.80;;;;;;;13.82;100.00;100238.91;4973477;28;20290;-91
2023/08/06 04:43:17;;;;;;;6.63;5.13;;;;;;;13.84;100.00;100249.41;4974344;28;20039;-91
2023/08/06 04:45:50;;;;;;;8.63;4.87;;;;;;;13.88;100.00;100250.38;4972367;28;20099;-91
2023/08/06 04:48:15;;;;;;;6.75;5.32;;;;;;;13.99;100.00;100251.03;4973347;28;20452;-91
2023/08/06 04:50:48;;;;;;;7.07;5.50;;;;;;;14.03;100.00;100257.44;4977152;28;20038;-95
2023/08/06 04:53:13;;;;;;;7.32;5.55;;;;;;;14.05;100.00;100253.38;4988736;28;20386;-96
2023/08/06 04:55:38;;;;;;;7.13;5.40;;;;;;;14.12;100.00;100244.06;4987868;28;20019;-96
2023/08/06 04:58:04;;;;;;;7.57;5.80;;;;;;;14.22;100.00;100258.19;4986671;28;20638;-96
2023/08/06 05:00:29;;;;;;;8.73;5.83;;;;;;;14.25;100.00;100251.38;4984544;28;20053;-96
2023/08/06 05:02:54;;;;;;;6.77;5.33;;;;;;;14.43;100.00;100267.78;4977089;28;20050;-96
2023/08/06 05:05:20;;;;;;;6.83;5.50;;;;;;;14.45;100.00;100258.31;4978758;28;20054;-94
2023/08/06 05:07:48;;;;;;;7.83;5.40;;;;;;;14.57;100.00;100260.53;4977322;28;20034;-95
2023/08/06 05:10:14;;;;;;;7.95;5.30;;;;;;;14.72;100.00;100261.38;4978018;28;20967;-95
2023/08/06 05:12:39;;;;;;;10.63;5.23;;;;;;;14.82;100.00;100269.25;4978327;28;20054;-95
2023/08/06 05:15:46;;;;;;;6.10;4.43;;;;;;;14.86;100.00;100267.56;4977840;28;20278;-96
2023/08/06 05:18:12;;;;;;;5.18;4.53;;;;;;;14.94;100.00;100279.53;4977536;28;20039;-95
2023/08/06 05:20:41;;;;;;;7.77;5.27;;;;;;;15.03;100.00;100274.22;4974268;28;20030;-95
2023/08/06 05:23:06;;;;;;;9.75;5.10;;;;;;;15.20;100.00;100279.03;4975608;28;20121;-95
2023/08/06 05:25:32;;;;;;;5.90;5.13;;;;;;;15.31;100.00;100287.72;4977031;28;20341;-95
2023/08/06 05:27:57;;;;;;;5.97;4.73;;;;;;;15.35;100.00;100278.69;4976248;28;20027;-96
2023/08/06 05:30:22;;;;;;;6.45;4.90;;;;;;;15.48;100.00;100285.16;4974562;28;20114;-95
2023/08/06 05:32:48;;;;;;;10.77;5.17;;;;;;;15.40;100.00;100278.59;4978299;28;20030;-96
2023/08/06 05:35:13;;;;;;;8.50;4.57;;;;;;;15.47;100.00;100304.34;4976075;28;20070;-96
2023/08/06 05:37:38;;;;;;;11.03;4.80;;;;;;;15.44;100.00;100301.16;4972898;28;20118;-95
2023/08/06 05:40:04;;;;;;;7.90;5.00;;;;;;;15.51;100.00;100302.66;4974600;28;20014;-94
2023/08/06 05:42:30;;;;;;;6.07;4.80;;;;;;;15.68;100.00;100321.69;4990016;28;20493;-95
2023/08/06 05:45:01;;;;;;;7.10;4.70;;;;;;;15.80;100.00;100317.66;4978064;28;20023;-96
2023/08/06 05:47:28;;;;;;;8.05;4.85;;;;;;;15.84;100.00;100315.94;4993476;28;20026;-96
2023/08/06 05:49:54;;;;;;;10.40;5.30;;;;;;;15.84;100.00;100308.66;4981831;28;20081;-96
2023/08/06 05:52:21;;;;;;;5.60;4.97;;;;;;;15.90;100.00;100323.66;4979311;28;20773;-96
2023/08/06 05:54:46;;;;;;;6.78;5.28;;;;;;;15.90;100.00;100331.75;4980978;28;20113;-96
2023/08/06 05:57:11;;;;;;;5.57;4.63;;;;;;;15.79;100.00;100330.38;4984810;28;20046;-96
2023/08/06 05:59:51;;;;;;;5.93;3.90;;;;;;;15.87;100.00;100334.28;4980365;28;20321;-96
2023/08/06 06:02:18;;;;;;;5.88;4.00;;;;;;;15.86;100.00;100330.81;4976021;28;20027;-96
2023/08/06 06:04:43;;;;;;;6.67;4.10;;;;;;;15.93;100.00;100343.88;4974415;28;20038;-96
2023/08/06 06:07:09;;;;;;;9.10;4.00;;;;;;;15.88;100.00;100328.59;4961156;29;20283;-96
2023/08/06 06:09:34;;;;;;;4.47;3.63;;;;;;;15.96;100.00;100337.88;4988641;28;20026;-96
2023/08/06 06:11:59;;;;;;;9.10;3.60;;;;;;;15.95;100.00;100357.06;4987249;28;20023;-96
2023/08/06 06:14:25;;;;;;;7.53;3.20;;;;;;;15.96;100.00;100353.28;4984625;28;20491;-96
2023/08/06 06:16:50;;;;;;;5.25;3.17;;;;;;;16.05;100.00;100356.84;4989198;28;20046;-96
2023/08/06 06:19:16;;;;;;;8.63;3.50;;;;;;;16.03;100.00;100359.84;4986433;28;20027;-96
2023/08/06 06:21:41;;;;;;;4.07;3.10;;;;;;;16.17;100.00;100362.50;4991172;28;20098;-96
2023/08/06 06:24:08;;;;;;;6.73;3.67;;;;;;;16.25;100.00;100371.00;4988307;28;20101;-96
2023/08/06 06:26:33;;;;;;;8.00;4.00;;;;;;;16.26;100.00;100367.16;4991475;28;20015;-96
2023/08/06 06:28:59;;;;;;;9.70;3.87;;;;;;;16.34;100.00;100374.53;4989531;28;20034;-96
2023/08/06 06:31:25;;;;;;;5.03;3.70;;;;;;;16.39;100.00;100374.41;4978336;28;20294;-91
2023/08/06 06:33:50;;;;;;;6.57;4.18;;;;;;;16.48;100.00;100388.78;4974651;28;20037;-92
2023/08/06 06:36:15;;;;;;;4.77;3.90;;;;;;;16.53;100.00;100387.06;4979057;28;20038;-90
2023/08/06 06:38:41;;;;;;;6.37;4.17;;;;;;;16.48;100.00;100382.59;4981931;28;20039;-91
2023/08/06 06:41:07;;;;;;;8.73;4.50;;;;;;;16.60;100.00;100384.72;4994182;28;20037;-91
2023/08/06 06:43:33;;;;;;;6.53;4.30;;;;;;;16.44;100.00;100395.91;4975938;28;20141;-91
2023/08/06 06:45:59;;;;;;;5.93;4.50;;;;;;;16.32;100.00;100393.78;4972919;28;20097;-92
2023/08/06 06:48:31;;;;;;;7.68;4.57;;;;;;;16.19;100.00;100402.72;4956122;29;20034;-89
2023/08/06 06:50:56;;;;;;;6.13;4.60;;;;;;;15.99;100.00;100387.78;4962401;28;20027;-92
2023/08/06 06:53:27;;;;;;;6.67;4.33;;;;;;;15.95;100.00;100403.00;4958894;28;20023;-92
2023/08/06 06:55:53;;;;;;;7.35;4.25;;;;;;;15.76;100.00;100401.22;4955751;29;20032;-92
2023/08/06 06:58:18;;;;;;;6.90;4.07;;;;;;;15.71;100.00;100399.44;4968709;28;20037;-92
2023/08/06 07:00:44;;;;;;;8.90;4.00;;;;;;;15.55;100.00;100401.63;4988177;28;20031;-92
2023/08/06 07:03:09;;;;;;;5.70;4.03;;;;;;;15.42;100.00;100402.47;4981891;28;20046;-91
2023/08/06 07:05:34;;;;;;;6.77;4.50;;;;;;;15.23;100.00;100403.34;4974001;28;20022;-90
2023/08/06 07:08:00;;;;;;;4.70;3.63;;;;;;;15.14;100.00;100414.03;4978666;28;20038;-90
2023/08/06 07:10:26;;;;;;;3.03;1.88;;;;;;;14.88;100.00;100405.63;4974756;28;20093;-93
2023/08/06 07:12:51;;;;;;;1.97;1.50;;;;;;;14.74;100.00;100418.28;4975532;28;20173;-92
2023/08/06 07:15:17;;;;;;;1.37;1.27;;;;;;;14.52;100.00;100403.50;4974956;28;20031;-92
2023/08/06 07:17:43;;;;;;;2.43;1.40;;;;;;;14.46;100.00;100420.84;4973248;28;20356;-90
2023/08/06 07:20:08;;;;;;;1.35;1.25;;;;;;;14.20;100.00;100416.66;4967199;28;20433;-90
2023/08/06 07:22:34;;;;;;;1.30;1.20;;;;;;;14.14;100.00;100420.53;4970951;28;20024;-89
2023/08/06 07:24:59;;;;;;;2.55;1.20;;;;;;;14.13;100.00;100436.97;4963089;28;20058;-89
2023/08/06 07:27:25;;;;;;;1.67;1.10;;;;;;;14.02;100.00;100433.59;4972496;28;20039;-88
2023/08/06 07:29:50;;;;;;;0.90;0.90;;;;;;;13.90;100.00;100434.84;4969940;28;20387;-89
2023/08/06 07:32:16;;;;;;;1.00;0.90;;;;;;;13.85;100.00;100434.13;4971482;28;20019;-88
2023/08/06 07:34:41;;;;;;;1.57;0.70;;;;;;;13.84;100.00;100456.75;4966712;28;20113;-89
2023/08/06 07:37:07;;;;;;;1.03;0.93;;;;;;;13.76;100.00;100456.28;4970001;28;20426;-89
2023/08/06 07:39:32;;;;;;;1.20;1.10;;;;;;;13.77;100.00;100465.97;4972151;28;20634;-89
2023/08/06 07:41:57;;;;;;;1.10;1.00;;;;;;;13.70;100.00;100449.34;4971191;28;20031;-89
2023/08/06 07:44:23;;;;;;;1.73;1.43;;;;;;;13.72;100.00;100466.03;4973737;28;20038;-89
2023/08/06 07:46:49;;;;;;;2.47;1.85;;;;;;;13.80;100.00;100471.88;4988130;28;20027;-89
2023/08/06 07:49:14;;;;;;;2.67;2.27;;;;;;;13.67;100.00;100460.72;4974809;28;20125;-89
2023/08/06 07:51:39;;;;;;;2.50;2.30;;;;;;;13.75;100.00;100484.31;4979598;28;20023;-89
2023/08/06 07:54:06;;;;;;;2.50;2.20;;;;;;;13.60;100.00;100485.28;4979041;28;20402;-89
2023/08/06 07:56:31;;;;;;;5.13;2.90;;;;;;;13.64;100.00;100488.22;4978813;28;20085;-90
2023/08/06 07:58:56;;;;;;;4.27;3.40;;;;;;;13.50;100.00;100479.22;4977520;28;20290;-89
2023/08/06 08:01:22;;;;;;;6.70;3.23;;;;;;;13.57;100.00;100496.63;4978567;28;20019;-91
2023/08/06 08:03:47;;;;;;;10.13;3.90;;;;;;;13.56;100.00;100488.81;4980846;28;20066;-90
2023/08/06 08:06:12;;;;;;;6.07;3.87;;;;;;;13.65;100.00;100495.19;4980797;28;20066;-90
2023/08/06 08:08:38;;;;;;;6.50;4.30;;;;;;;13.54;100.00;100481.06;4980150;28;20022;-90
2023/08/06 08:11:04;;;;;;;8.48;3.97;;;;;;;13.59;100.00;100499.03;4972377;28;20027;-88
2023/08/06 08:13:29;;;;;;;7.25;4.60;;;;;;;13.42;100.00;100484.13;4957452;28;20027;-89
2023/08/06 08:15:59;;;;;;;6.93;4.67;;;;;;;13.57;100.00;100495.81;4962459;28;20113;-89
2023/08/06 08:18:24;;;;;;;8.68;4.63;;;;;;;13.58;100.00;100492.03;4974902;28;20106;-89
2023/08/06 08:20:50;;;;;;;7.85;4.57;;;;;;;13.59;100.00;100491.78;4974603;28;20117;-87
2023/08/06 08:23:15;;;;;;;6.20;4.37;;;;;;;13.60;100.00;100514.88;4974645;28;20535;-87
2023/08/06 08:25:41;;;;;;;9.43;3.73;;;;;;;13.50;100.00;100487.31;4971883;28;20703;-87
2023/08/06 08:28:07;;;;;;;9.60;3.33;;;;;;;13.55;100.00;100517.66;4970468;28;20050;-86
2023/08/06 08:30:32;;;;;;;4.60;3.10;;;;;;;13.54;100.00;100501.78;4968020;28;20294;-86
2023/08/06 08:32:57;;;;;;;7.93;3.30;;;;;;;13.52;100.00;100503.94;4967616;28;20027;-85
2023/08/06 08:35:23;;;;;;;8.60;3.57;;;;;;;13.62;100.00;100514.63;4972522;28;20026;-84
2023/08/06 08:37:48;;;;;;;7.17;3.37;;;;;;;13.57;100.00;100506.59;4968654;28;20031;-86
2023/08/06 08:40:15;;;;;;;8.17;3.40;;;;;;;13.66;100.00;100509.44;4972989;28;20394;-85
2023/08/06 08:42:40;;;;;;;6.22;3.25;;;;;;;13.71;100.00;100539.03;4974466;28;20033;-85
2023/08/06 08:45:12;;;;;;;6.27;3.30;;;;;;;13.67;100.00;100524.53;4970858;28;20121;-86
2023/08/06 08:47:39;;;;;;;8.98;3.08;;;;;;;13.63;100.00;100525.09;4970150;28;20082;-86
2023/08/06 08:50:06;;;;;;;8.68;2.75;;;;;;;13.60;100.00;100530.25;4972774;28;20065;-86
2023/08/06 08:52:34;;;;;;;11.30;3.30;;;;;;;13.63;100.00;100538.53;4973864;28;20073;-84
2023/08/06 08:55:01;;;;;;;8.38;3.15;;;;;;;13.65;100.00;100538.28;4963754;28;20054;-85
2023/08/06 08:57:27;;;;;;;5.93;3.10;;;;;;;13.74;100.00;100536.56;4971068;28;20676;-85
2023/08/06 08:59:52;;;;;;;7.17;3.00;;;;;;;13.73;100.00;100536.84;4971494;28;20061;-84
2023/08/06 09:02:20;;;;;;;7.30;3.40;;;;;;;13.92;100.00;100544.97;4968829;28;20490;-85
2023/08/06 09:04:48;;;;;;;7.97;3.30;;;;;;;13.95;100.00;100532.84;4971659;28;20376;-85
2023/08/06 09:07:18;;;;;;;5.53;3.10;;;;;;;14.05;100.00;100549.69;4969936;28;20066;-85
2023/08/06 09:09:46;;;;;;;6.68;3.35;;;;;;;14.01;100.00;100558.59;4969144;28;20023;-86
2023/08/06 09:12:14;;;;;;;8.05;3.40;;;;;;;14.06;100.00;100566.63;4972247;28;20077;-85
2023/08/06 09:14:40;;;;;;;11.73;3.33;;;;;;;14.02;100.00;100565.59;4971524;28;20514;-85
2023/08/06 09:17:06;;;;;;;8.57;3.33;;;;;;;13.99;100.00;100572.38;4969784;28;20069;-86
2023/08/06 09:19:32;;;;;;;8.00;3.10;;;;;;;13.95;100.00;100574.03;4970253;28;20106;-86
2023/08/06 09:21:58;;;;;;;11.80;3.70;;;;;;;13.92;100.00;100569.22;4971387;28;20448;-85
2023/08/06 09:24:23;;;;;;;7.00;3.00;;;;;;;14.02;100.00;100579.88;4965115;28;20114;-85
2023/08/06 09:26:49;;;;;;;7.77;3.23;;;;;;;13.96;100.00;100575.63;4970087;28;20611;-86
2023/08/06 09:29:18;;;;;;;12.57;3.50;;;;;;;14.06;100.00;100594.38;4973496;28;20114;-88
2023/08/06 09:31:45;;;;;;;9.52;3.63;;;;;;;14.08;100.00;100584.09;4971647;28;20027;-87
2023/08/06 09:34:22;;;;;;;10.65;3.72;;;;;;;14.13;100.00;100591.34;4971135;28;20026;-88
2023/08/06 09:36:50;;;;;;;12.07;3.78;;;;;;;14.03;100.00;100589.59;4971958;28;20027;-87
2023/08/06 09:39:17;;;;;;;9.07;3.58;;;;;;;13.97;100.00;100585.31;4971343;28;20035;-87
2023/08/06 09:41:43;;;;;;;14.23;3.53;;;;;;;14.01;100.00;100585.56;4974044;28;20062;-87
2023/08/06 09:44:23;;;;;;;6.73;3.70;;;;;;;14.14;100.00;100597.53;4969665;28;20507;-87
2023/08/06 09:46:53;;;;;;;11.00;3.85;;;;;;;14.19;100.00;100603.66;4972538;28;20487;-88
2023/08/06 09:49:21;;;;;;;9.85;3.90;;;;;;;14.22;100.00;100602.31;4973089;28;20038;-88
2023/08/06 09:51:50;;;;;;;12.75;3.97;;;;;;;14.16;100.00;100609.63;4973173;28;20027;-87
2023/08/06 09:54:16;;;;;;;8.45;3.60;;;;;;;14.15;100.00;100612.59;4972005;28;20073;-87
2023/08/06 09:56:43;;;;;;;8.38;3.60;;;;;;;14.09;100.00;100615.34;4972200;28;20031;-88
2023/08/06 09:59:10;;;;;;;7.35;3.67;;;;;;;14.12;100.00;100618.56;4972619;28;20031;-88
2023/08/06 10:01:37;;;;;;;8.38;3.75;;;;;;;14.14;100.00;100619.91;4973373;28;20029;-87
2023/08/06 10:04:09;;;;;;;7.07;3.78;;;;;;;14.02;100.00;100603.31;4973218;28;20414;-88
2023/08/06 10:06:36;;;;;;;9.00;3.93;;;;;;;14.15;100.00;100623.38;4972354;28;20534;-87
2023/08/06 10:09:02;;;;;;;10.40;3.70;;;;;;;14.13;100.00;100622.88;4973016;28;20286;-88
2023/08/06 10:11:28;;;;;;;12.00;3.70;;;;;;;14.16;100.00;100636.56;4972044;28;20041;-88
2023/08/06 10:14:08;;;;;;;8.40;3.58;;;;;;;14.28;100.00;100632.69;4974757;28;20037;-88
2023/08/06 10:16:34;;;;;;;11.63;3.60;;;;;;;14.15;100.00;100639.56;4971475;28;20043;-88
2023/08/06 10:19:01;;;;;;;7.15;3.40;;;;;;;14.27;100.00;100633.78;4972468;28;20037;-88
2023/08/06 10:21:30;;;;;;;9.75;3.67;;;;;;;14.32;100.00;100634.50;4972825;28;20114;-88
2023/08/06 10:23:56;;;;;;;9.25;3.70;;;;;;;14.43;100.00;100637.88;4973153;28;20029;-89
2023/08/06 10:26:26;;;;;;;9.40;3.97;;;;;;;14.47;100.00;100640.78;4972299;28;20043;-87
2023/08/06 10:28:52;;;;;;;7.10;4.03;;;;;;;14.51;100.00;100636.44;4971832;28;20042;-88
2023/08/06 10:31:17;;;;;;;7.72;3.75;;;;;;;14.32;100.00;100623.72;4973163;28;20029;-88
2023/08/06 10:33:45;;;;;;;8.37;3.90;;;;;;;14.45;100.00;100642.97;4972134;28;20031;-87
2023/08/06 10:36:11;;;;;;;9.80;3.70;;;;;;;14.56;100.00;100644.47;4969659;28;20062;-88
2023/08/06 10:38:47;;;;;;;8.10;3.78;;;;;;;14.58;100.00;100634.22;4974387;28;20054;-87
2023/08/06 10:41:27;;;;;;;10.33;3.90;;;;;;;14.60;100.00;100636.59;4973668;28;20486;-89
2023/08/06 10:44:05;;;;;;;7.10;3.80;;;;;;;14.63;100.00;100638.72;4973242;28;20301;-88
2023/08/06 10:46:31;;;;;;;8.95;3.67;;;;;;;14.68;100.00;100647.56;4974005;28;20018;-88
2023/08/06 10:48:56;;;;;;;12.53;3.97;;;;;;;14.62;100.00;100653.28;4979627;28;20051;-88
2023/08/06 10:51:22;;;;;;;9.80;3.80;;;;;;;14.67;100.00;100651.31;4973813;28;20069;-90
2023/08/06 10:53:49;;;;;;;10.93;3.87;;;;;;;14.71;100.00;100650.78;4976095;28;20082;-90
2023/08/06 10:56:19;;;;;;;7.75;4.72;;;;;;;14.79;100.00;100664.44;4972502;28;20556;-89
2023/08/06 10:58:46;;;;;;;17.02;4.30;;;;;;;14.72;100.00;100655.09;4975173;28;20023;-87
2023/08/06 11:01:11;;;;;;;11.63;4.30;;;;;;;14.76;100.00;100661.50;4971112;28;20521;-88
2023/08/06 11:03:37;;;;;;;8.70;3.93;;;;;;;14.68;100.00;100655.66;4979332;28;20046;-88
2023/08/06 11:06:03;;;;;;;8.25;3.53;;;;;;;14.58;100.00;100658.47;4976052;28;20390;-85
2023/08/06 11:08:33;;;;;;;7.85;3.28;;;;;;;14.50;100.00;100665.31;4978177;28;20035;-87
2023/08/06 11:11:15;;;;;;;6.25;2.83;;;;;;;14.43;100.00;100669.41;4978698;28;20031;-87
2023/08/06 11:13:41;;;;;;;8.13;2.67;;;;;;;14.30;100.00;100662.84;4974113;28;20027;-86
2023/08/06 11:16:08;;;;;;;7.17;2.97;;;;;;;14.25;100.00;100674.47;4979223;28;20065;-87